createdAt,value
2022-07-29T00:00:24.641Z,16.69
2022-07-29T00:01:42.251Z,16.94
2022-07-29T00:02:50.292Z,16.91
2022-07-29T00:03:58.984Z,16.78
2022-07-29T00:05:09.869Z,16.93
2022-07-29T00:06:20.143Z,16.94
2022-07-29T00:07:32.040Z,16.92
2022-07-29T00:08:42.895Z,16.76
2022-07-29T00:09:52.539Z,16.82
2022-07-29T00:11:02.235Z,17.03
2022-07-29T00:12:12.168Z,16.94
2022-07-29T00:13:32.187Z,16.47
2022-07-29T00:14:42.082Z,16.55
2022-07-29T00:15:52.131Z,16.89
2022-07-29T00:17:00.921Z,16.74
2022-07-29T00:18:14.042Z,16.00
2022-07-29T00:19:23.710Z,15.21
2022-07-29T00:20:31.689Z,15.09
2022-07-29T00:21:42.096Z,15.46
2022-07-29T00:22:50.212Z,16.01
2022-07-29T00:24:02.148Z,16.40
2022-07-29T00:25:11.982Z,16.29
2022-07-29T00:26:22.474Z,16.36
2022-07-29T00:27:32.806Z,16.14
2022-07-29T00:28:42.338Z,16.18
2022-07-29T00:29:50.202Z,16.21
2022-07-29T00:31:01.343Z,16.72
2022-07-29T00:32:12.740Z,17.14
2022-07-29T00:33:21.009Z,17.40
2022-07-29T00:34:49.199Z,17.17
2022-07-29T00:35:57.441Z,16.80
2022-07-29T00:37:07.856Z,16.94
2022-07-29T00:38:18.844Z,17.31
2022-07-29T00:39:27.522Z,17.19
2022-07-29T00:40:35.850Z,17.09
2022-07-29T00:41:44.435Z,17.28
2022-07-29T00:42:53.421Z,16.68
2022-07-29T00:44:03.068Z,16.66
2022-07-29T00:45:11.413Z,16.66
2022-07-29T00:46:22.539Z,16.79
2022-07-29T00:47:32.528Z,16.80
2022-07-29T00:48:41.267Z,17.14
2022-07-29T00:49:54.035Z,17.39
2022-07-29T00:51:05.254Z,17.56
2022-07-29T00:52:17.048Z,17.56
2022-07-29T00:53:28.827Z,17.74
2022-07-29T00:54:44.575Z,17.94
2022-07-29T00:55:52.911Z,18.40
2022-07-29T00:57:07.010Z,18.58
2022-07-29T00:58:18.043Z,18.67
2022-07-29T00:59:26.409Z,19.00
2022-07-29T01:00:45.660Z,19.21
2022-07-29T01:01:53.242Z,19.34
2022-07-29T01:03:02.163Z,19.66
2022-07-29T01:04:14.863Z,19.84
2022-07-29T01:05:51.622Z,19.78
2022-07-29T01:06:56.569Z,19.80
2022-07-29T01:08:04.958Z,19.72
2022-07-29T01:09:16.272Z,19.76
2022-07-29T01:10:44.002Z,20.42
2022-07-29T01:11:51.543Z,20.85
2022-07-29T01:13:01.607Z,21.05
2022-07-29T01:14:11.878Z,21.38
2022-07-29T01:15:22.644Z,21.58
2022-07-29T01:16:36.815Z,21.34
2022-07-29T01:17:54.993Z,21.25
2022-07-29T01:19:12.021Z,21.21
2022-07-29T01:20:52.983Z,20.99
2022-07-29T01:22:05.654Z,20.64
2022-07-29T01:23:41.241Z,20.59
2022-07-29T01:25:31.387Z,20.63
2022-07-29T01:27:16.339Z,20.41
2022-07-29T01:29:13.336Z,20.28
2022-07-29T01:30:22.116Z,20.29
2022-07-29T01:32:00.627Z,20.40
2022-07-29T01:33:35.101Z,20.51
2022-07-29T01:34:58.146Z,20.49
2022-07-29T01:36:10.307Z,20.66
2022-07-29T01:37:51.984Z,20.58
2022-07-29T01:39:11.635Z,20.59
2022-07-29T01:40:54.874Z,20.65
2022-07-29T01:42:05.697Z,20.79
2022-07-29T01:43:24.661Z,21.08
2022-07-29T01:45:08.954Z,20.95
2022-07-29T01:46:18.285Z,21.30
2022-07-29T01:47:29.106Z,21.59
2022-07-29T01:48:51.113Z,21.94
2022-07-29T01:50:00.568Z,22.34
2022-07-29T01:51:16.812Z,22.71
2022-07-29T01:52:56.087Z,23.04
2022-07-29T01:54:37.599Z,23.38
2022-07-29T01:55:48.269Z,23.95
2022-07-29T01:56:59.055Z,23.86
2022-07-29T01:58:08.274Z,23.88
2022-07-29T01:59:22.741Z,23.82
2022-07-29T02:00:34.004Z,24.04
2022-07-29T02:01:45.631Z,24.14
2022-07-29T02:02:54.226Z,24.18
2022-07-29T02:04:05.299Z,24.45
2022-07-29T02:05:16.162Z,24.62
2022-07-29T02:06:28.291Z,24.68
2022-07-29T02:07:39.221Z,24.74
2022-07-29T02:08:47.719Z,24.51
2022-07-29T02:09:55.545Z,24.74
2022-07-29T02:11:05.544Z,24.94
2022-07-29T02:12:15.142Z,24.71
2022-07-29T02:13:23.428Z,24.81
2022-07-29T02:14:35.869Z,25.02
2022-07-29T02:15:46.517Z,24.98
2022-07-29T02:16:56.454Z,25.22
2022-07-29T02:18:12.696Z,25.10
2022-07-29T02:19:24.241Z,25.40
2022-07-29T02:20:33.407Z,25.45
2022-07-29T02:21:43.418Z,25.37
2022-07-29T02:22:51.340Z,25.52
2022-07-29T02:24:01.050Z,25.80
2022-07-29T02:25:13.698Z,26.07
2022-07-29T02:26:23.747Z,26.42
2022-07-29T02:27:35.354Z,26.44
2022-07-29T02:28:43.445Z,26.13
2022-07-29T02:29:51.606Z,26.09
2022-07-29T02:31:05.696Z,26.18
2022-07-29T02:32:15.182Z,26.07
2022-07-29T02:33:31.050Z,25.94
2022-07-29T02:34:40.902Z,25.38
2022-07-29T02:35:50.591Z,24.64
2022-07-29T02:36:58.832Z,24.29
2022-07-29T02:38:35.267Z,24.40
2022-07-29T02:39:46.517Z,25.08
2022-07-29T02:40:54.534Z,25.18
2022-07-29T02:42:10.723Z,25.24
2022-07-29T02:43:22.620Z,25.36
2022-07-29T02:44:34.695Z,25.35
2022-07-29T02:45:45.533Z,25.10
2022-07-29T02:47:08.368Z,24.99
2022-07-29T02:48:20.595Z,25.17
2022-07-29T02:50:00.580Z,25.22
2022-07-29T02:51:41.478Z,24.90
2022-07-29T02:53:25.598Z,24.65
2022-07-29T02:54:49.322Z,24.81
2022-07-29T02:56:00.643Z,24.98
2022-07-29T02:57:20.430Z,25.22
2022-07-29T02:58:33.135Z,25.33
2022-07-29T02:59:42.978Z,25.51
2022-07-29T03:00:51.231Z,25.58
2022-07-29T03:02:00.919Z,25.68
2022-07-29T03:03:14.149Z,25.87
2022-07-29T03:04:23.598Z,25.74
2022-07-29T03:05:32.815Z,25.98
2022-07-29T03:06:41.999Z,26.35
2022-07-29T03:07:55.957Z,26.42
2022-07-29T03:09:10.465Z,26.31
2022-07-29T03:10:23.631Z,26.25
2022-07-29T03:11:40.091Z,26.38
2022-07-29T03:12:59.288Z,26.11
2022-07-29T03:14:07.875Z,25.70
2022-07-29T03:15:17.816Z,25.38
2022-07-29T03:16:27.589Z,25.29
2022-07-29T03:17:38.981Z,25.22
2022-07-29T03:18:47.700Z,24.92
2022-07-29T03:19:55.544Z,24.81
2022-07-29T03:21:06.324Z,24.92
2022-07-29T03:22:15.692Z,24.85
2022-07-29T03:23:33.210Z,24.88
2022-07-29T03:24:45.404Z,24.86
2022-07-29T03:25:55.798Z,25.14
2022-07-29T03:27:09.062Z,25.19
2022-07-29T03:28:19.543Z,25.14
2022-07-29T03:29:33.408Z,25.20
2022-07-29T03:30:44.581Z,25.48
2022-07-29T03:31:53.729Z,25.56
2022-07-29T03:33:13.258Z,25.53
2022-07-29T03:34:23.604Z,25.68
2022-07-29T03:35:34.914Z,25.71
2022-07-29T03:36:42.979Z,25.78
2022-07-29T03:37:52.500Z,25.83
2022-07-29T03:39:03.813Z,25.70
2022-07-29T03:40:13.866Z,25.85
2022-07-29T03:41:23.054Z,26.09
2022-07-29T03:42:36.176Z,26.24
2022-07-29T03:43:49.474Z,26.48
2022-07-29T03:44:58.596Z,26.78
2022-07-29T03:46:10.108Z,26.92
2022-07-29T03:47:21.476Z,27.14
2022-07-29T03:48:36.734Z,27.36
2022-07-29T03:49:45.852Z,27.25
2022-07-29T03:50:53.950Z,27.58
2022-07-29T03:52:06.258Z,28.15
2022-07-29T03:53:16.484Z,28.48
2022-07-29T03:54:25.787Z,28.59
2022-07-29T03:55:37.149Z,28.57
2022-07-29T03:56:48.842Z,28.67
2022-07-29T03:57:57.332Z,28.89
2022-07-29T03:59:08.698Z,29.00
2022-07-29T04:00:18.301Z,29.27
2022-07-29T04:01:29.599Z,29.62
2022-07-29T04:02:40.639Z,29.53
2022-07-29T04:03:48.831Z,29.43
2022-07-29T04:04:57.105Z,29.66
2022-07-29T04:06:08.603Z,29.96
2022-07-29T04:07:19.583Z,30.46
2022-07-29T04:08:27.901Z,30.79
2022-07-29T04:09:38.757Z,31.23
2022-07-29T04:10:46.697Z,32.18
2022-07-29T04:12:01.466Z,32.99
2022-07-29T04:13:13.774Z,33.09
2022-07-29T04:14:23.075Z,33.05
2022-07-29T04:15:33.389Z,33.32
2022-07-29T04:16:41.372Z,33.55
2022-07-29T04:17:51.603Z,33.81
2022-07-29T04:18:59.917Z,33.73
2022-07-29T04:20:08.942Z,33.52
2022-07-29T04:21:18.049Z,33.10
2022-07-29T04:22:29.056Z,33.03
2022-07-29T04:23:52.813Z,33.47
2022-07-29T04:25:04.404Z,34.02
2022-07-29T04:26:14.886Z,34.46
2022-07-29T04:27:26.166Z,34.66
2022-07-29T04:28:37.087Z,35.07
2022-07-29T04:29:57.394Z,35.23
2022-07-29T04:31:09.731Z,35.33
2022-07-29T04:32:20.491Z,35.29
2022-07-29T04:33:28.867Z,35.56
2022-07-29T04:34:37.418Z,35.78
2022-07-29T04:35:50.207Z,35.87
2022-07-29T04:37:02.927Z,36.10
2022-07-29T04:38:15.609Z,36.48
2022-07-29T04:39:30.594Z,36.77
2022-07-29T04:40:38.805Z,36.86
2022-07-29T04:41:49.058Z,37.09
2022-07-29T04:42:56.994Z,37.50
2022-07-29T04:44:08.927Z,37.64
2022-07-29T04:45:16.922Z,37.94
2022-07-29T04:46:33.472Z,37.83
2022-07-29T04:47:43.443Z,38.01
2022-07-29T04:48:51.616Z,38.18
2022-07-29T04:49:59.841Z,38.50
2022-07-29T04:51:10.288Z,38.37
2022-07-29T04:52:21.023Z,38.54
2022-07-29T04:53:29.113Z,38.68
2022-07-29T04:54:37.541Z,38.72
2022-07-29T04:55:46.394Z,39.01
2022-07-29T04:56:54.159Z,38.85
2022-07-29T04:58:02.181Z,39.05
2022-07-29T04:59:13.828Z,39.30
2022-07-29T05:00:22.384Z,39.69
2022-07-29T05:01:43.914Z,39.50
2022-07-29T05:02:52.219Z,39.72
2022-07-29T05:04:02.794Z,39.68
2022-07-29T05:05:13.532Z,39.74
2022-07-29T05:06:24.556Z,40.00
2022-07-29T05:07:33.725Z,40.17
2022-07-29T05:08:43.419Z,40.53
2022-07-29T05:09:50.947Z,40.64
2022-07-29T05:10:59.156Z,40.60
2022-07-29T05:12:23.073Z,40.87
2022-07-29T05:13:45.341Z,40.91
2022-07-29T05:14:56.097Z,41.13
2022-07-29T05:16:04.587Z,41.37
2022-07-29T05:17:13.711Z,41.38
2022-07-29T05:18:26.229Z,41.38
2022-07-29T05:19:34.854Z,41.50
2022-07-29T05:20:49.143Z,41.48
2022-07-29T05:21:57.610Z,41.49
2022-07-29T05:23:06.207Z,41.81
2022-07-29T05:24:15.162Z,41.73
2022-07-29T05:25:43.872Z,41.74
2022-07-29T05:26:53.646Z,42.36
2022-07-29T05:28:02.360Z,42.36
2022-07-29T05:29:44.775Z,42.42
2022-07-29T05:30:43.630Z,42.64
2022-07-29T05:31:51.638Z,42.78
2022-07-29T05:32:59.700Z,42.81
2022-07-29T05:34:08.716Z,42.63
2022-07-29T05:35:19.727Z,42.84
2022-07-29T05:36:27.803Z,42.95
2022-07-29T05:37:36.466Z,43.14
2022-07-29T05:38:44.113Z,43.12
2022-07-29T05:39:56.559Z,43.22
2022-07-29T05:41:05.696Z,43.45
2022-07-29T05:42:16.297Z,43.62
2022-07-29T05:43:26.349Z,43.78
2022-07-29T05:44:39.115Z,43.85
2022-07-29T05:45:49.330Z,44.07
2022-07-29T05:47:00.015Z,44.20
2022-07-29T05:48:08.346Z,44.24
2022-07-29T05:49:26.807Z,44.32
2022-07-29T05:50:44.279Z,44.45
2022-07-29T05:51:56.949Z,44.58
2022-07-29T05:53:18.857Z,44.83
2022-07-29T05:54:31.743Z,44.90
2022-07-29T05:55:42.987Z,45.09
2022-07-29T05:56:55.332Z,45.31
2022-07-29T05:58:03.835Z,45.49
2022-07-29T05:59:18.182Z,45.28
2022-07-29T06:00:27.943Z,45.22
2022-07-29T06:01:42.192Z,45.33
2022-07-29T06:02:50.186Z,45.29
2022-07-29T06:03:58.394Z,45.79
2022-07-29T06:05:06.455Z,45.76
2022-07-29T06:06:23.629Z,45.83
2022-07-29T06:07:35.364Z,46.15
2022-07-29T06:08:45.808Z,46.29
2022-07-29T06:09:54.275Z,46.13
2022-07-29T06:11:04.292Z,46.61
2022-07-29T06:12:13.294Z,46.57
2022-07-29T06:13:23.514Z,46.99
2022-07-29T06:14:34.485Z,47.38
2022-07-29T06:15:45.109Z,47.90
2022-07-29T06:16:53.484Z,48.07
2022-07-29T06:18:02.486Z,48.00
2022-07-29T06:19:14.068Z,47.47
2022-07-29T06:20:24.330Z,48.04
2022-07-29T06:21:42.157Z,48.69
2022-07-29T06:22:50.218Z,48.69
2022-07-29T06:23:59.373Z,49.02
2022-07-29T06:25:10.372Z,49.07
2022-07-29T06:26:30.741Z,48.83
2022-07-29T06:27:41.276Z,49.19
2022-07-29T06:28:49.885Z,49.03
2022-07-29T06:29:59.246Z,49.59
2022-07-29T06:31:10.284Z,49.98
2022-07-29T06:32:19.307Z,50.31
2022-07-29T06:33:33.315Z,50.43
2022-07-29T06:34:42.242Z,50.30
2022-07-29T06:35:53.648Z,50.60
2022-07-29T06:37:08.562Z,50.33
2022-07-29T06:38:25.183Z,50.14
2022-07-29T06:39:41.760Z,50.33
2022-07-29T06:41:06.240Z,50.36
2022-07-29T06:42:16.442Z,50.47
2022-07-29T06:43:24.680Z,50.48
2022-07-29T06:44:36.807Z,50.50
2022-07-29T06:45:46.501Z,50.69
2022-07-29T06:46:56.052Z,50.88
2022-07-29T06:48:04.362Z,51.00
2022-07-29T06:49:15.972Z,50.97
2022-07-29T06:50:26.336Z,50.92
2022-07-29T06:51:37.006Z,51.02
2022-07-29T06:52:46.921Z,51.37
2022-07-29T06:53:59.632Z,51.78
2022-07-29T06:55:12.107Z,52.15
2022-07-29T06:56:38.299Z,51.95
2022-07-29T06:57:49.568Z,52.00
2022-07-29T06:59:01.574Z,52.29
2022-07-29T07:00:14.448Z,52.43
2022-07-29T07:01:24.502Z,52.42
2022-07-29T07:02:34.113Z,52.47
2022-07-29T07:03:46.142Z,52.27
2022-07-29T07:04:54.319Z,52.11
2022-07-29T07:06:02.883Z,51.98
2022-07-29T07:07:13.446Z,52.30
2022-07-29T07:08:23.414Z,52.23
2022-07-29T07:09:40.340Z,52.62
2022-07-29T07:10:50.869Z,52.80
2022-07-29T07:11:58.892Z,52.68
2022-07-29T07:13:07.364Z,52.46
2022-07-29T07:14:16.558Z,52.52
2022-07-29T07:15:38.531Z,52.89
2022-07-29T07:16:50.268Z,53.52
2022-07-29T07:18:01.179Z,53.90
2022-07-29T07:19:09.203Z,54.11
2022-07-29T07:20:17.193Z,54.13
2022-07-29T07:21:27.278Z,54.06
2022-07-29T07:22:41.806Z,54.38
2022-07-29T07:23:53.908Z,54.01
2022-07-29T07:25:02.661Z,53.95
2022-07-29T07:26:14.187Z,53.97
2022-07-29T07:27:23.292Z,53.92
2022-07-29T07:28:35.481Z,53.64
2022-07-29T07:29:44.825Z,53.61
2022-07-29T07:30:53.425Z,54.45
2022-07-29T07:32:01.538Z,54.76
2022-07-29T07:33:12.172Z,54.75
2022-07-29T07:34:28.274Z,54.73
2022-07-29T07:35:38.772Z,54.84
2022-07-29T07:36:48.705Z,54.93
2022-07-29T07:37:59.528Z,55.08
2022-07-29T07:39:08.287Z,55.14
2022-07-29T07:40:19.306Z,55.08
2022-07-29T07:41:27.765Z,55.03
2022-07-29T07:42:43.041Z,54.90
2022-07-29T07:43:56.554Z,54.73
2022-07-29T07:45:16.108Z,54.61
2022-07-29T07:46:30.083Z,54.32
2022-07-29T07:47:41.813Z,54.13
2022-07-29T07:48:50.403Z,54.64
2022-07-29T07:49:58.332Z,54.61
2022-07-29T07:51:07.649Z,54.43
2022-07-29T07:52:19.977Z,54.66
2022-07-29T07:53:28.170Z,56.56
2022-07-29T07:54:37.305Z,57.60
2022-07-29T07:56:09.298Z,58.39
2022-07-29T07:57:19.877Z,59.60
2022-07-29T07:58:28.227Z,59.89
2022-07-29T07:59:37.115Z,60.33
2022-07-29T08:00:47.043Z,60.28
2022-07-29T08:01:56.880Z,60.66
2022-07-29T08:03:05.521Z,61.08
2022-07-29T08:04:29.144Z,61.17
2022-07-29T08:05:39.448Z,61.22
2022-07-29T08:06:52.914Z,61.58
2022-07-29T08:08:00.736Z,62.22
2022-07-29T08:09:28.275Z,62.43
2022-07-29T08:10:56.116Z,61.97
2022-07-29T08:12:08.600Z,61.68
2022-07-29T08:13:17.269Z,61.75
2022-07-29T08:14:27.223Z,61.53
2022-07-29T08:15:37.577Z,61.42
2022-07-29T08:16:49.864Z,61.55
2022-07-29T08:17:57.934Z,61.29
2022-07-29T08:19:06.063Z,61.60
2022-07-29T08:20:16.913Z,62.24
2022-07-29T08:21:27.145Z,63.08
2022-07-29T08:22:37.022Z,63.82
2022-07-29T08:23:56.153Z,63.88
2022-07-29T08:25:08.128Z,63.68
2022-07-29T08:26:17.332Z,63.44
2022-07-29T08:27:44.431Z,62.94
2022-07-29T08:28:54.080Z,62.77
2022-07-29T08:30:02.231Z,62.83
2022-07-29T08:31:10.156Z,63.63
2022-07-29T08:32:37.166Z,63.42
2022-07-29T08:33:49.832Z,63.13
2022-07-29T08:34:58.098Z,62.80
2022-07-29T08:36:06.166Z,62.31
2022-07-29T08:37:15.494Z,61.78
2022-07-29T08:38:25.757Z,61.30
2022-07-29T08:39:34.970Z,60.93
2022-07-29T08:40:44.644Z,60.78
2022-07-29T08:41:57.505Z,60.43
2022-07-29T08:43:14.211Z,60.32
2022-07-29T08:44:30.483Z,60.07
2022-07-29T08:45:54.419Z,59.90
2022-07-29T08:47:02.479Z,59.84
2022-07-29T08:48:15.788Z,59.80
2022-07-29T08:49:25.346Z,60.15
2022-07-29T08:50:34.828Z,60.26
2022-07-29T08:51:49.596Z,59.89
2022-07-29T08:53:00.412Z,60.09
2022-07-29T08:54:09.857Z,60.11
2022-07-29T08:55:21.517Z,60.59
2022-07-29T08:56:31.681Z,60.92
2022-07-29T08:57:54.126Z,61.20
2022-07-29T08:59:08.737Z,61.10
2022-07-29T09:00:21.696Z,60.98
2022-07-29T09:01:36.090Z,60.85
2022-07-29T09:02:54.604Z,61.17
2022-07-29T09:04:03.727Z,62.01
2022-07-29T09:05:14.541Z,61.89
2022-07-29T09:06:24.379Z,61.79
2022-07-29T09:07:35.050Z,62.10
2022-07-29T09:08:44.767Z,62.47
2022-07-29T09:09:55.689Z,63.23
2022-07-29T09:11:07.709Z,63.24
2022-07-29T09:12:28.643Z,63.69
2022-07-29T09:13:38.299Z,64.15
2022-07-29T09:14:49.622Z,64.55
2022-07-29T09:16:01.769Z,64.94
2022-07-29T09:17:11.872Z,65.45
2022-07-29T09:18:49.436Z,65.36
2022-07-29T09:19:58.080Z,65.58
2022-07-29T09:21:26.014Z,65.99
2022-07-29T09:22:40.065Z,66.53
2022-07-29T09:24:09.639Z,66.19
2022-07-29T09:25:35.412Z,65.98
2022-07-29T09:26:46.011Z,66.11
2022-07-29T09:27:56.225Z,66.27
2022-07-29T09:29:12.552Z,66.12
2022-07-29T09:30:28.347Z,66.62
2022-07-29T09:31:42.757Z,67.56
2022-07-29T09:33:03.845Z,67.92
2022-07-29T09:34:15.601Z,67.71
2022-07-29T09:35:27.801Z,67.51
2022-07-29T09:36:48.060Z,67.22
2022-07-29T09:37:57.450Z,67.02
2022-07-29T09:39:07.352Z,67.02
2022-07-29T09:40:23.285Z,67.07
2022-07-29T09:41:33.925Z,67.07
2022-07-29T09:42:43.819Z,67.07
2022-07-29T09:44:02.186Z,67.25
2022-07-29T09:45:10.397Z,67.78
2022-07-29T09:46:20.039Z,68.09
2022-07-29T09:47:44.475Z,68.52
2022-07-29T09:49:16.236Z,68.70
2022-07-29T09:50:28.643Z,68.57
2022-07-29T09:51:38.599Z,68.54
2022-07-29T09:52:58.637Z,68.91
2022-07-29T09:54:31.176Z,69.10
2022-07-29T09:55:54.348Z,69.26
2022-07-29T09:57:02.580Z,69.49
2022-07-29T09:58:25.370Z,68.83
2022-07-29T09:59:35.396Z,68.69
2022-07-29T10:00:47.225Z,68.59
2022-07-29T10:01:57.526Z,68.21
2022-07-29T10:03:06.002Z,68.37
2022-07-29T10:04:14.319Z,68.27
2022-07-29T10:05:36.512Z,68.54
2022-07-29T10:07:08.324Z,68.86
2022-07-29T10:08:16.686Z,69.09
2022-07-29T10:09:25.099Z,68.97
2022-07-29T10:10:42.074Z,68.98
2022-07-29T10:12:07.675Z,68.86
2022-07-29T10:13:19.629Z,68.91
2022-07-29T10:14:27.996Z,69.09
2022-07-29T10:15:45.174Z,69.22
2022-07-29T10:16:54.580Z,69.32
2022-07-29T10:18:02.704Z,69.18
2022-07-29T10:19:11.018Z,69.09
2022-07-29T10:20:21.854Z,69.24
2022-07-29T10:21:35.845Z,69.22
2022-07-29T10:22:54.173Z,69.32
2022-07-29T10:24:03.234Z,69.33
2022-07-29T10:25:13.005Z,69.13
2022-07-29T10:26:24.682Z,69.41
2022-07-29T10:27:35.087Z,69.89
2022-07-29T10:28:43.308Z,69.97
2022-07-29T10:29:55.780Z,70.07
2022-07-29T10:31:06.458Z,70.08
2022-07-29T10:32:31.918Z,70.13
2022-07-29T10:34:06.111Z,69.97
2022-07-29T10:35:52.698Z,70.01
2022-07-29T10:37:21.520Z,70.19
2022-07-29T10:38:48.149Z,70.04
2022-07-29T10:40:37.655Z,69.96
2022-07-29T10:42:29.629Z,70.28
2022-07-29T10:43:51.492Z,70.33
2022-07-29T10:45:00.426Z,70.53
2022-07-29T10:46:08.689Z,70.71
2022-07-29T10:47:28.520Z,70.86
2022-07-29T10:48:37.856Z,70.83
2022-07-29T10:50:01.385Z,70.55
2022-07-29T10:51:11.837Z,70.62
2022-07-29T10:52:26.628Z,70.54
2022-07-29T10:53:55.303Z,70.59
2022-07-29T10:55:05.113Z,70.62
2022-07-29T10:56:30.865Z,71.01
2022-07-29T10:57:54.459Z,71.20
2022-07-29T10:59:32.257Z,71.45
2022-07-29T11:00:45.733Z,71.20
2022-07-29T11:02:10.854Z,70.79
2022-07-29T11:03:53.625Z,70.78
2022-07-29T11:05:02.995Z,70.58
2022-07-29T11:06:15.299Z,70.41
2022-07-29T11:07:25.163Z,70.74
2022-07-29T11:09:34.901Z,70.54
2022-07-29T11:10:46.986Z,70.63
2022-07-29T11:11:58.488Z,71.04
2022-07-29T11:13:09.121Z,71.29
2022-07-29T11:14:20.402Z,71.29
2022-07-29T11:15:56.815Z,70.96
2022-07-29T11:17:09.899Z,70.82
2022-07-29T11:18:24.852Z,70.76
2022-07-29T11:19:35.827Z,70.72
2022-07-29T11:20:50.090Z,70.66
2022-07-29T11:21:58.803Z,70.87
2022-07-29T11:23:33.976Z,71.04
2022-07-29T11:24:50.213Z,71.36
2022-07-29T11:26:23.669Z,71.60
2022-07-29T11:27:43.091Z,71.43
2022-07-29T11:29:01.041Z,71.63
2022-07-29T11:30:19.960Z,71.41
2022-07-29T11:31:46.487Z,71.19
2022-07-29T11:32:55.712Z,71.23
2022-07-29T11:34:27.964Z,71.61
2022-07-29T11:35:41.327Z,71.77
2022-07-29T11:37:17.748Z,72.05
2022-07-29T11:38:31.931Z,72.31
2022-07-29T11:39:49.153Z,72.46
2022-07-29T11:41:22.092Z,72.40
2022-07-29T11:42:32.282Z,72.43
2022-07-29T11:43:54.795Z,72.63
2022-07-29T11:45:44.412Z,73.26
2022-07-29T11:46:54.680Z,73.55
2022-07-29T11:48:29.197Z,73.73
2022-07-29T11:49:34.468Z,73.92
2022-07-29T11:50:48.611Z,73.97
2022-07-29T11:51:59.595Z,74.02
2022-07-29T11:53:16.228Z,73.85
2022-07-29T11:54:57.088Z,73.57
2022-07-29T11:56:05.204Z,73.54
2022-07-29T11:57:15.541Z,73.48
2022-07-29T11:58:28.269Z,73.71
2022-07-29T11:59:44.565Z,73.93
2022-07-29T12:00:56.463Z,73.87
2022-07-29T12:02:36.475Z,73.74
2022-07-29T12:03:37.361Z,73.46
2022-07-29T12:04:59.385Z,73.19
2022-07-29T12:06:20.981Z,72.53
2022-07-29T12:07:36.398Z,72.37
2022-07-29T12:08:46.209Z,72.31
2022-07-29T12:09:58.210Z,72.44
2022-07-29T12:11:06.495Z,72.15
2022-07-29T12:12:15.593Z,72.22
2022-07-29T12:13:37.036Z,72.71
2022-07-29T12:14:51.025Z,73.13
2022-07-29T12:16:03.006Z,73.53
2022-07-29T12:17:11.479Z,73.55
2022-07-29T12:18:24.159Z,73.78
2022-07-29T12:19:34.726Z,73.69
2022-07-29T12:20:43.713Z,73.83
2022-07-29T12:22:02.182Z,73.95
2022-07-29T12:23:12.020Z,73.91
2022-07-29T12:24:22.673Z,74.11
2022-07-29T12:25:43.487Z,73.91
2022-07-29T12:26:55.722Z,73.71
2022-07-29T12:28:06.776Z,73.96
2022-07-29T12:29:33.908Z,74.32
2022-07-29T12:30:55.353Z,75.13
2022-07-29T12:32:06.670Z,75.59
2022-07-29T12:33:26.738Z,75.48
2022-07-29T12:34:36.398Z,75.50
2022-07-29T12:35:58.068Z,75.27
2022-07-29T12:37:13.067Z,75.24
2022-07-29T12:38:22.183Z,75.22
2022-07-29T12:39:33.954Z,75.32
2022-07-29T12:40:42.510Z,75.75
2022-07-29T12:41:51.114Z,75.53
2022-07-29T12:43:21.399Z,75.43
2022-07-29T12:44:51.088Z,75.82
2022-07-29T12:46:01.456Z,76.18
2022-07-29T12:47:10.333Z,76.10
2022-07-29T12:48:19.177Z,75.94
2022-07-29T12:49:28.758Z,75.98
2022-07-29T12:50:38.337Z,76.36
2022-07-29T12:51:48.465Z,76.78
2022-07-29T12:52:56.993Z,76.49
2022-07-29T12:54:19.298Z,76.10
2022-07-29T12:55:53.201Z,75.98
2022-07-29T12:57:02.632Z,76.23
2022-07-29T12:58:10.746Z,76.32
2022-07-29T12:59:26.926Z,76.38
2022-07-29T13:00:35.856Z,76.27
2022-07-29T13:01:47.401Z,76.29
2022-07-29T13:02:59.748Z,76.15
2022-07-29T13:04:07.981Z,76.31
2022-07-29T13:05:19.133Z,76.53
2022-07-29T13:06:49.661Z,76.55
2022-07-29T13:08:22.281Z,76.45
2022-07-29T13:09:44.974Z,76.16
2022-07-29T13:10:55.714Z,75.88
2022-07-29T13:12:05.578Z,75.86
2022-07-29T13:13:18.885Z,76.19
2022-07-29T13:14:35.081Z,76.10
2022-07-29T13:15:52.593Z,75.96
2022-07-29T13:17:04.871Z,76.42
2022-07-29T13:18:36.500Z,76.68
2022-07-29T13:19:47.719Z,76.61
2022-07-29T13:20:58.307Z,76.49
2022-07-29T13:22:07.339Z,76.33
2022-07-29T13:23:15.673Z,76.02
2022-07-29T13:24:26.176Z,75.86
2022-07-29T13:25:37.006Z,75.89
2022-07-29T13:26:46.331Z,76.21
2022-07-29T13:27:57.195Z,76.99
2022-07-29T13:29:05.823Z,77.29
2022-07-29T13:30:14.767Z,77.12
2022-07-29T13:31:23.661Z,76.94
2022-07-29T13:32:34.472Z,76.84
2022-07-29T13:33:45.331Z,76.79
2022-07-29T13:34:54.268Z,76.69
2022-07-29T13:36:05.123Z,76.81
2022-07-29T13:37:13.413Z,76.76
2022-07-29T13:38:22.065Z,76.62
2022-07-29T13:39:40.529Z,76.32
2022-07-29T13:40:51.496Z,76.10
2022-07-29T13:42:04.439Z,75.92
2022-07-29T13:43:15.549Z,75.78
2022-07-29T13:44:26.845Z,75.69
2022-07-29T13:45:37.396Z,75.58
2022-07-29T13:46:46.669Z,75.63
2022-07-29T13:47:56.384Z,75.38
2022-07-29T13:49:10.109Z,75.42
2022-07-29T13:50:18.841Z,75.11
2022-07-29T13:51:29.301Z,75.02
2022-07-29T13:52:38.364Z,75.02
2022-07-29T13:53:46.782Z,75.09
2022-07-29T13:54:59.059Z,75.33
2022-07-29T13:56:10.425Z,75.39
2022-07-29T13:57:21.884Z,75.33
2022-07-29T13:58:30.777Z,75.46
2022-07-29T13:59:42.027Z,75.39
2022-07-29T14:00:52.465Z,75.40
2022-07-29T14:02:01.743Z,75.56
2022-07-29T14:03:10.004Z,75.57
2022-07-29T14:04:18.213Z,75.25
2022-07-29T14:05:28.808Z,74.96
2022-07-29T14:06:36.855Z,74.87
2022-07-29T14:07:51.113Z,74.74
2022-07-29T14:09:00.893Z,74.64
2022-07-29T14:10:09.846Z,74.61
2022-07-29T14:11:17.719Z,74.36
2022-07-29T14:12:28.105Z,74.30
2022-07-29T14:13:36.785Z,73.98
2022-07-29T14:14:47.156Z,73.96
2022-07-29T14:15:56.504Z,73.85
2022-07-29T14:17:06.035Z,73.68
2022-07-29T14:18:14.395Z,73.56
2022-07-29T14:19:24.019Z,73.55
2022-07-29T14:20:35.694Z,73.54
2022-07-29T14:21:46.149Z,73.41
2022-07-29T14:22:55.763Z,73.35
2022-07-29T14:24:03.922Z,73.33
2022-07-29T14:25:32.318Z,73.26
2022-07-29T14:26:46.402Z,73.03
2022-07-29T14:27:58.635Z,72.75
2022-07-29T14:29:07.041Z,72.53
2022-07-29T14:30:15.223Z,72.15
2022-07-29T14:31:26.593Z,71.97
2022-07-29T14:32:37.209Z,71.73
2022-07-29T14:33:49.157Z,71.53
2022-07-29T14:35:01.725Z,71.32
2022-07-29T14:36:10.431Z,70.96
2022-07-29T14:37:18.319Z,70.61
2022-07-29T14:38:28.832Z,69.97
2022-07-29T14:39:43.187Z,69.50
2022-07-29T14:40:55.517Z,68.92
2022-07-29T14:42:05.507Z,68.53
2022-07-29T14:43:13.612Z,68.07
2022-07-29T14:44:22.198Z,68.13
2022-07-29T14:45:34.087Z,68.02
2022-07-29T14:46:45.210Z,67.90
2022-07-29T14:48:01.330Z,67.71
2022-07-29T14:49:09.505Z,67.46
2022-07-29T14:50:18.332Z,67.11
2022-07-29T14:51:36.662Z,66.84
2022-07-29T14:52:46.566Z,66.72
2022-07-29T14:53:56.688Z,66.74
2022-07-29T14:55:16.439Z,66.82
2022-07-29T14:56:37.267Z,66.46
2022-07-29T14:57:46.590Z,65.93
2022-07-29T14:58:55.590Z,65.73
2022-07-29T15:00:05.576Z,65.55
2022-07-29T15:01:13.706Z,65.17
2022-07-29T15:02:25.623Z,64.63
2022-07-29T15:03:46.417Z,62.84
2022-07-29T15:04:55.074Z,62.78
2022-07-29T15:06:07.137Z,61.97
2022-07-29T15:07:15.699Z,61.28
2022-07-29T15:08:25.616Z,60.53
2022-07-29T15:09:36.305Z,59.77
2022-07-29T15:10:55.097Z,59.24
2022-07-29T15:12:05.463Z,59.27
2022-07-29T15:13:13.765Z,59.46
2022-07-29T15:14:21.905Z,59.43
2022-07-29T15:15:30.504Z,59.07
2022-07-29T15:16:44.055Z,58.99
2022-07-29T15:17:59.307Z,58.98
2022-07-29T15:19:07.593Z,58.80
2022-07-29T15:20:16.408Z,58.96
2022-07-29T15:21:27.032Z,58.44
2022-07-29T15:22:35.858Z,57.70
2022-07-29T15:23:44.954Z,57.40
2022-07-29T15:24:55.667Z,57.25
2022-07-29T15:26:06.398Z,56.62
2022-07-29T15:27:16.803Z,56.25
2022-07-29T15:28:26.962Z,55.59
2022-07-29T15:29:36.385Z,54.80
2022-07-29T15:30:46.499Z,52.84
2022-07-29T15:31:55.738Z,51.80
2022-07-29T15:33:05.551Z,51.25
2022-07-29T15:34:13.656Z,51.07
2022-07-29T15:35:22.080Z,50.09
2022-07-29T15:38:04.384Z,47.86
2022-07-29T15:39:12.737Z,47.08
2022-07-29T15:40:21.196Z,46.24
2022-07-29T15:41:32.025Z,46.02
2022-07-29T15:42:42.273Z,46.12
2022-07-29T15:43:51.287Z,46.54
2022-07-29T15:44:59.603Z,46.60
2022-07-29T15:46:29.306Z,46.45
2022-07-29T15:47:42.985Z,45.80
2022-07-29T15:48:50.901Z,44.87